»·PEaware :: N114 KSAC-KSFO

N114 :: KSAC-KSFO

FLIGHT INFORMATION

Flight Status: Arrived
Operator: Privately registered:
United States
More flights under this callsign
Pilot: Leo F. (613)
Aircraft: CESSNA 182 SKYLANE
(C182)
More flights by this aircraft type
Origin: KSAC Sacramento Executive
United States
Destination: KSFO San Francisco Intl
United States
More flights between these airports :: More routes between these airports
Route: SAC V6 OAK
File this flight plan on PilotEdge
Remarks:
Altitude:
(Current/Filed)
6,000ft
Speed:
(Current/Filed)
125kts
Departed: 11-Jul-18 09:03 AM
Arrived: 11-Jul-18 09:37 AM
Distance/Time
Traveled:
68nm/0:34
Distance/Time
To Go:
Arrived

Flight Plot

Page will automatically refresh every two minutes.


Map Options




Map Legend


Flown Route
Filed Route
Departure Airport
Arrival Airport
Navaid (VOR, NDB)
Fix

Horizontal Profiles

Position Reports

Time Latitude Longitude Heading Altitude Ground
Speed
11-Jul-18 08:35 38.513816 -121.498428 75 27ft 0kts
11-Jul-18 08:36 38.513816 -121.498428 75 27ft 0kts
11-Jul-18 08:37 38.513816 -121.498428 75 27ft 0kts
11-Jul-18 08:38 38.513816 -121.498428 75 27ft 0kts
11-Jul-18 08:39 38.513816 -121.498428 75 27ft 0kts
11-Jul-18 08:40 38.513816 -121.498428 75 27ft 0kts
11-Jul-18 08:41 38.513816 -121.498428 75 27ft 0kts
11-Jul-18 08:42 38.513816 -121.498428 75 27ft 0kts
11-Jul-18 08:43 38.513816 -121.498428 75 27ft 0kts
11-Jul-18 08:44 38.513816 -121.498428 75 27ft 0kts
11-Jul-18 08:45 38.513816 -121.498428 75 27ft 0kts
11-Jul-18 08:46 38.513816 -121.498428 75 27ft 0kts
11-Jul-18 08:47 38.513816 -121.498428 75 27ft 0kts
11-Jul-18 08:48 38.513816 -121.498428 75 27ft 0kts
11-Jul-18 08:49 38.513816 -121.498428 75 27ft 0kts
11-Jul-18 08:50 38.513816 -121.498428 75 27ft 0kts
11-Jul-18 08:51 38.513816 -121.498428 75 27ft 0kts
11-Jul-18 08:52 38.513816 -121.498428 75 27ft 0kts
11-Jul-18 08:53 38.513816 -121.498428 75 27ft 0kts
11-Jul-18 08:54 38.514290 -121.496723 89 27ft 0kts
11-Jul-18 08:55 38.515174 -121.495205 81 27ft 1kts
11-Jul-18 08:56 38.514726 -121.494524 41 27ft 16kts
11-Jul-18 08:57 38.519255 -121.490368 81 27ft 8kts
11-Jul-18 08:58 38.519205 -121.490164 131 27ft 0kts
11-Jul-18 08:59 38.519205 -121.490164 131 27ft 0kts
11-Jul-18 09:00 38.519205 -121.490164 131 27ft 0kts
11-Jul-18 09:01 38.519205 -121.490164 131 27ft 0kts
11-Jul-18 09:02 38.519205 -121.490164 131 27ft 0kts
11-Jul-18 09:03 38.517869 -121.490184 211 27ft 0kts
11-Jul-18 09:04 38.503968 -121.502161 213 350ft 80kts
11-Jul-18 09:05 38.498890 -121.526847 264 1002ft 86kts
11-Jul-18 09:06 38.497415 -121.561282 264 1650ft 107kts
11-Jul-18 09:07 38.489922 -121.596493 192 2263ft 109kts
11-Jul-18 09:08 38.458296 -121.599484 184 2950ft 123kts
11-Jul-18 09:09 38.425311 -121.613162 195 3522ft 121kts
11-Jul-18 09:10 38.392889 -121.625082 194 4149ft 125kts
11-Jul-18 09:11 38.358814 -121.637346 194 4756ft 127kts
11-Jul-18 09:12 38.325938 -121.649174 193 5299ft 114kts
11-Jul-18 09:13 38.298304 -121.666991 207 5880ft 109kts
11-Jul-18 09:14 38.269864 -121.689272 208 6004ft 133kts
11-Jul-18 09:15 38.237272 -121.715041 208 5994ft 139kts
11-Jul-18 09:16 38.204163 -121.741181 208 5993ft 140kts
11-Jul-18 09:17 38.171015 -121.767377 210 5994ft 140kts
11-Jul-18 09:18 38.140047 -121.798193 215 5996ft 141kts
11-Jul-18 09:19 38.109450 -121.829826 215 6017ft 143kts
11-Jul-18 09:20 38.083292 -121.856841 215 6023ft 149kts
11-Jul-18 09:21 38.051130 -121.890062 215 6022ft 149kts
11-Jul-18 09:22 38.018547 -121.923610 215 6031ft 159kts
11-Jul-18 09:23 37.985246 -121.957986 215 6024ft 145kts
11-Jul-18 09:24 37.952617 -121.991464 216 5743ft 167kts
11-Jul-18 09:25 37.915613 -122.029528 216 5051ft 175kts
11-Jul-18 09:26 37.878742 -122.067370 216 4331ft 168kts
11-Jul-18 09:27 37.844987 -122.101949 217 3982ft 139kts
11-Jul-18 09:28 37.810813 -122.136899 216 3996ft 130kts
11-Jul-18 09:29 37.782329 -122.165996 217 4013ft 144kts
11-Jul-18 09:30 37.756238 -122.192704 217 3994ft 135kts
11-Jul-18 09:31 37.727598 -122.220365 198 3999ft 124kts
11-Jul-18 09:32 37.694387 -122.231372 193 3485ft 123kts
11-Jul-18 09:33 37.661640 -122.241136 192 2933ft 114kts
11-Jul-18 09:34 37.625934 -122.252069 205 1472ft 131kts
11-Jul-18 09:35 37.603521 -122.281247 244 957ft 119kts
11-Jul-18 09:36 37.599143 -122.319531 283 650ft 111kts
11-Jul-18 09:37 37.610925 -122.351321 300 295ft 81kts
11-Jul-18 09:38 37.618188 -122.368265 299 16ft 17kts
11-Jul-18 09:39 37.621876 -122.375972 8 16ft 8kts
11-Jul-18 09:40 37.622181 -122.375756 39 16ft 8kts
11-Jul-18 09:41 37.625165 -122.377338 322 16ft 19kts
11-Jul-18 09:42 37.627040 -122.378891 324 16ft 0kts
11-Jul-18 09:43 37.627040 -122.378891 324 16ft 0kts
11-Jul-18 09:44 37.627040 -122.378891 324 16ft 0kts

Navigation Log

Ident Type
1. KSAC Airport
2. SAC Navaid
3. COUPS Fix
4. REJOY Fix
5. RYMAR Fix
6. PITTS Fix
7. COLLI Fix
8. FESIK Fix
9. OAK Navaid
10. KSFO Airport